createdAt,value
2022-11-13T00:00:54.682Z,6.08
2022-11-13T00:01:54.626Z,6.01
2022-11-13T00:02:54.604Z,5.98
2022-11-13T00:03:54.613Z,5.99
2022-11-13T00:04:54.468Z,5.90
2022-11-13T00:05:54.398Z,5.97
2022-11-13T00:06:58.915Z,5.90
2022-11-13T00:07:54.284Z,5.91
2022-11-13T00:08:54.236Z,5.90
2022-11-13T00:09:54.226Z,6.01
2022-11-13T00:10:54.126Z,5.93
2022-11-13T00:11:54.054Z,5.98
2022-11-13T00:12:54.001Z,5.97
2022-11-13T00:13:53.943Z,5.94
2022-11-13T00:14:53.885Z,6.01
2022-11-13T00:15:53.844Z,6.01
2022-11-13T00:16:53.780Z,6.02
2022-11-13T00:17:53.714Z,6.01
2022-11-13T00:18:53.663Z,6.11
2022-11-13T00:19:53.711Z,5.98
2022-11-13T00:20:53.544Z,5.98
2022-11-13T00:21:53.487Z,5.87
2022-11-13T00:22:53.427Z,5.94
2022-11-13T00:23:53.372Z,5.91
2022-11-13T00:24:53.334Z,5.98
2022-11-13T00:25:53.274Z,5.93
2022-11-13T00:26:53.207Z,6.05
2022-11-13T00:27:53.144Z,6.04
2022-11-13T00:28:53.089Z,6.04
2022-11-13T00:29:53.030Z,5.99
2022-11-13T00:30:52.989Z,5.98
2022-11-13T00:31:52.916Z,5.93
2022-11-13T00:32:52.877Z,5.93
2022-11-13T00:34:52.746Z,5.89
2022-11-13T00:35:52.780Z,5.86
2022-11-13T00:36:52.657Z,5.84
2022-11-13T00:37:52.572Z,5.82
2022-11-13T00:38:52.517Z,5.76
2022-11-13T00:39:55.703Z,5.72
2022-11-13T00:40:52.404Z,5.65
2022-11-13T00:41:52.412Z,5.73
2022-11-13T00:42:52.306Z,5.71
2022-11-13T00:43:52.253Z,5.65
2022-11-13T00:44:52.189Z,5.59
2022-11-13T00:45:52.123Z,5.64
2022-11-13T00:46:52.081Z,5.57
2022-11-13T00:47:52.013Z,5.54
2022-11-13T00:48:51.960Z,5.53
2022-11-13T00:49:51.890Z,5.47
2022-11-13T00:50:51.832Z,5.41
2022-11-13T00:51:51.895Z,5.48
2022-11-13T00:52:51.718Z,5.47
2022-11-13T00:53:51.660Z,5.48
2022-11-13T00:54:51.606Z,5.44
2022-11-13T00:55:51.548Z,5.44
2022-11-13T00:56:51.505Z,5.48
2022-11-13T00:57:51.446Z,5.56
2022-11-13T00:58:51.379Z,5.47
2022-11-13T00:59:51.317Z,5.54
2022-11-13T01:00:51.260Z,5.56
2022-11-13T01:01:51.286Z,5.47
2022-11-13T01:02:51.160Z,5.43
2022-11-13T01:03:51.091Z,5.44
2022-11-13T01:04:51.032Z,5.44
2022-11-13T01:05:50.975Z,5.44
2022-11-13T01:06:50.951Z,5.43
2022-11-13T01:07:50.992Z,5.41
2022-11-13T01:08:50.803Z,5.43
2022-11-13T01:09:50.762Z,5.46
2022-11-13T01:10:53.787Z,5.43
2022-11-13T01:11:50.630Z,5.41
2022-11-13T01:12:50.588Z,5.47
2022-11-13T01:13:50.517Z,5.48
2022-11-13T01:14:50.478Z,5.38
2022-11-13T01:15:50.401Z,5.36
2022-11-13T01:16:50.347Z,5.33
2022-11-13T01:17:50.303Z,5.26
2022-11-13T01:18:50.229Z,5.21
2022-11-13T01:19:50.181Z,5.15
2022-11-13T01:20:50.114Z,5.07
2022-11-13T01:21:50.099Z,5.17
2022-11-13T01:22:50.000Z,5.07
2022-11-13T01:23:50.051Z,5.04
2022-11-13T01:24:49.884Z,5.08
2022-11-13T01:25:49.831Z,5.04
2022-11-13T01:26:49.797Z,4.97
2022-11-13T01:27:49.718Z,5.02
2022-11-13T01:28:49.671Z,4.99
2022-11-13T01:29:49.597Z,4.90
2022-11-13T01:30:49.542Z,4.97
2022-11-13T01:31:49.489Z,5.00
2022-11-13T01:32:49.426Z,4.94
2022-11-13T01:33:49.384Z,4.97
2022-11-13T01:34:49.325Z,5.05
2022-11-13T01:35:49.253Z,5.02
2022-11-13T01:36:49.214Z,5.04
2022-11-13T01:37:49.137Z,5.10
2022-11-13T01:38:49.080Z,5.08
2022-11-13T01:39:49.117Z,5.10
2022-11-13T01:40:48.965Z,5.02
2022-11-13T01:41:50.106Z,5.04
2022-11-13T01:42:48.865Z,5.11
2022-11-13T01:43:48.806Z,5.07
2022-11-13T01:44:48.736Z,5.15
2022-11-13T01:45:48.676Z,5.11
2022-11-13T01:46:48.632Z,5.10
2022-11-13T01:47:48.576Z,5.02
2022-11-13T01:48:48.503Z,5.07
2022-11-13T01:49:48.449Z,4.99
2022-11-13T01:50:48.389Z,4.97
2022-11-13T01:51:48.340Z,4.94
2022-11-13T01:52:48.290Z,4.84
2022-11-13T01:53:48.223Z,4.78
2022-11-13T01:54:48.160Z,4.82
2022-11-13T01:55:48.191Z,4.87
2022-11-13T01:56:48.055Z,4.87
2022-11-13T01:57:47.999Z,4.84
2022-11-13T01:58:47.926Z,4.92
2022-11-13T01:59:47.869Z,4.80
2022-11-13T02:00:47.811Z,4.90
2022-11-13T02:01:47.806Z,4.92
2022-11-13T02:02:47.712Z,4.90
2022-11-13T02:03:47.640Z,4.94
2022-11-13T02:04:47.579Z,4.93
2022-11-13T02:05:47.530Z,4.93
2022-11-13T02:06:47.494Z,4.92
2022-11-13T02:07:47.420Z,4.87
2022-11-13T02:08:47.350Z,4.93
2022-11-13T02:09:47.304Z,4.96
2022-11-13T02:10:48.188Z,4.92
2022-11-13T02:11:47.267Z,4.89
2022-11-13T02:12:47.132Z,5.00
2022-11-13T02:13:47.058Z,4.90
2022-11-13T02:14:47.001Z,4.94
2022-11-13T02:15:46.968Z,5.00
2022-11-13T02:16:46.886Z,4.82
2022-11-13T02:17:46.843Z,4.89
2022-11-13T02:18:46.767Z,4.94
2022-11-13T02:19:46.727Z,4.80
2022-11-13T02:20:46.670Z,4.73
2022-11-13T02:21:46.597Z,4.71
2022-11-13T02:22:46.538Z,4.68
2022-11-13T02:23:46.486Z,4.66
2022-11-13T02:24:48.877Z,4.55
2022-11-13T02:25:46.366Z,4.66
2022-11-13T02:26:46.308Z,4.56
2022-11-13T02:27:46.341Z,4.68
2022-11-13T02:28:46.217Z,4.71
2022-11-13T02:29:46.138Z,4.66
2022-11-13T02:30:46.075Z,4.67
2022-11-13T02:31:46.017Z,4.67
2022-11-13T02:32:45.960Z,4.62
2022-11-13T02:33:45.903Z,4.68
2022-11-13T02:34:45.863Z,4.55
2022-11-13T02:35:45.786Z,4.55
2022-11-13T02:36:45.729Z,4.56
2022-11-13T02:37:45.686Z,4.56
2022-11-13T02:38:45.620Z,4.62
2022-11-13T02:39:45.553Z,4.55
2022-11-13T02:40:45.511Z,4.45
2022-11-13T02:41:45.441Z,4.41
2022-11-13T02:42:45.383Z,4.50
2022-11-13T02:43:45.428Z,4.58
2022-11-13T02:44:45.281Z,4.48
2022-11-13T02:45:45.205Z,4.58
2022-11-13T02:46:45.146Z,4.55
2022-11-13T02:47:45.093Z,4.59
2022-11-13T02:48:45.047Z,4.53
2022-11-13T02:49:44.974Z,4.52
2022-11-13T02:50:44.931Z,4.56
2022-11-13T02:51:44.898Z,4.62
2022-11-13T02:52:44.839Z,4.58
2022-11-13T02:53:44.747Z,4.59
2022-11-13T02:54:44.685Z,4.58
2022-11-13T02:55:44.641Z,4.58
2022-11-13T02:56:44.584Z,4.58
2022-11-13T02:57:44.510Z,4.52
2022-11-13T02:58:44.456Z,4.62
2022-11-13T02:59:44.485Z,4.55
2022-11-13T03:00:44.351Z,4.59
2022-11-13T03:01:44.314Z,4.40
2022-11-13T03:02:44.230Z,4.48
2022-11-13T03:03:59.506Z,4.42
2022-11-13T03:05:10.766Z,4.48
2022-11-13T03:05:44.049Z,4.35
2022-11-13T03:06:44.092Z,4.40
2022-11-13T03:07:43.989Z,4.38
2022-11-13T03:08:43.874Z,4.37
2022-11-13T03:09:43.831Z,4.38
2022-11-13T03:10:43.773Z,4.34
2022-11-13T03:11:43.714Z,4.41
2022-11-13T03:12:43.640Z,4.41
2022-11-13T03:13:43.584Z,4.40
2022-11-13T03:14:43.525Z,4.37
2022-11-13T03:15:43.559Z,4.35
2022-11-13T03:16:43.431Z,4.34
2022-11-13T03:17:43.360Z,4.41
2022-11-13T03:18:43.298Z,4.40
2022-11-13T03:19:43.237Z,4.40
2022-11-13T03:20:43.178Z,4.37
2022-11-13T03:21:43.137Z,4.37
2022-11-13T03:22:43.060Z,4.28
2022-11-13T03:23:43.017Z,4.31
2022-11-13T03:24:42.946Z,4.28
2022-11-13T03:25:42.886Z,4.28
2022-11-13T03:26:42.853Z,4.30
2022-11-13T03:27:42.775Z,4.24
2022-11-13T03:28:42.716Z,4.26
2022-11-13T03:29:42.655Z,4.24
2022-11-13T03:30:42.596Z,4.22
2022-11-13T03:31:42.628Z,4.24
2022-11-13T03:32:42.499Z,4.30
2022-11-13T03:33:42.421Z,4.26
2022-11-13T03:34:42.362Z,4.20
2022-11-13T03:35:46.674Z,4.20
2022-11-13T03:36:51.283Z,4.19
2022-11-13T03:37:42.192Z,4.23
2022-11-13T03:38:42.131Z,4.23
2022-11-13T03:39:42.075Z,4.23
2022-11-13T03:40:42.014Z,4.26
2022-11-13T03:41:41.954Z,4.31
2022-11-13T03:42:41.916Z,4.23
2022-11-13T03:43:41.840Z,4.26
2022-11-13T03:44:41.783Z,4.24
2022-11-13T03:45:41.724Z,4.30
2022-11-13T03:46:41.667Z,4.32
2022-11-13T03:47:41.696Z,4.26
2022-11-13T03:48:41.564Z,4.30
2022-11-13T03:49:41.492Z,4.35
2022-11-13T03:50:45.349Z,4.31
2022-11-13T03:51:41.373Z,4.23
2022-11-13T03:52:41.329Z,4.32
2022-11-13T03:53:41.263Z,4.35
2022-11-13T03:54:41.203Z,4.28
2022-11-13T03:55:41.155Z,4.28
2022-11-13T03:56:41.082Z,4.30
2022-11-13T03:57:41.024Z,4.30
2022-11-13T03:58:42.830Z,4.28
2022-11-13T03:59:40.909Z,4.23
2022-11-13T04:00:40.866Z,4.26
2022-11-13T04:01:40.862Z,4.20
2022-11-13T04:02:40.750Z,4.19
2022-11-13T04:03:40.786Z,4.26
2022-11-13T04:04:40.623Z,4.34
2022-11-13T04:05:40.564Z,4.28
2022-11-13T04:06:40.601Z,4.31
2022-11-13T04:07:40.447Z,4.32
2022-11-13T04:08:40.403Z,4.35
2022-11-13T04:09:40.329Z,4.30
2022-11-13T04:10:40.270Z,4.32
2022-11-13T04:11:40.213Z,4.35
2022-11-13T04:12:40.150Z,4.35
2022-11-13T04:13:40.096Z,4.31
2022-11-13T04:14:40.050Z,4.40
2022-11-13T04:15:39.981Z,4.35
2022-11-13T04:16:39.920Z,4.40
2022-11-13T04:17:39.861Z,4.35
2022-11-13T04:18:39.802Z,4.32
2022-11-13T04:19:39.849Z,4.34
2022-11-13T04:20:39.706Z,4.28
2022-11-13T04:21:39.635Z,4.37
2022-11-13T04:22:39.571Z,4.26
2022-11-13T04:23:39.512Z,4.34
2022-11-13T04:24:39.472Z,4.42
2022-11-13T04:25:39.397Z,4.35
2022-11-13T04:26:39.338Z,4.40
2022-11-13T04:27:39.299Z,4.40
2022-11-13T04:28:39.221Z,4.42
2022-11-13T04:29:39.165Z,4.40
2022-11-13T04:30:39.121Z,4.40
2022-11-13T04:31:39.069Z,4.52
2022-11-13T04:32:38.989Z,4.53
2022-11-13T04:33:38.933Z,4.55
2022-11-13T04:34:38.870Z,4.53
2022-11-13T04:35:38.925Z,4.58
2022-11-13T04:36:38.770Z,4.58
2022-11-13T04:37:38.697Z,4.55
2022-11-13T04:38:38.639Z,4.50
2022-11-13T04:39:38.582Z,4.58
2022-11-13T04:40:38.523Z,4.59
2022-11-13T04:41:38.481Z,4.55
2022-11-13T04:42:38.410Z,4.52
2022-11-13T04:43:38.347Z,4.56
2022-11-13T04:44:38.292Z,4.56
2022-11-13T04:45:38.248Z,4.59
2022-11-13T04:46:38.172Z,4.58
2022-11-13T04:47:38.116Z,4.60
2022-11-13T04:48:38.059Z,4.62
2022-11-13T04:49:38.001Z,4.53
2022-11-13T04:50:37.955Z,4.62
2022-11-13T04:51:37.978Z,4.53
2022-11-13T04:52:37.838Z,4.53
2022-11-13T04:53:37.768Z,4.53
2022-11-13T04:54:37.706Z,4.56
2022-11-13T04:55:37.651Z,4.56
2022-11-13T04:56:37.605Z,4.55
2022-11-13T04:57:37.534Z,4.53
2022-11-13T04:58:37.475Z,4.60
2022-11-13T04:59:37.423Z,4.58
2022-11-13T05:00:37.360Z,4.55
2022-11-13T05:01:37.353Z,4.56
2022-11-13T05:02:37.243Z,4.44
2022-11-13T05:03:37.185Z,4.41
2022-11-13T05:04:37.141Z,4.41
2022-11-13T05:05:37.083Z,4.35
2022-11-13T05:06:37.091Z,4.28
2022-11-13T05:07:37.072Z,4.37
2022-11-13T05:08:36.893Z,4.31
2022-11-13T05:09:36.837Z,4.26
2022-11-13T05:10:36.777Z,4.14
2022-11-13T05:11:36.721Z,4.13
2022-11-13T05:12:36.674Z,4.12
2022-11-13T05:13:36.617Z,4.04
2022-11-13T05:14:36.545Z,4.10
2022-11-13T05:15:36.497Z,3.98
2022-11-13T05:16:36.440Z,4.01
2022-11-13T05:17:36.373Z,3.94
2022-11-13T05:18:36.309Z,3.91
2022-11-13T05:19:36.255Z,3.87
2022-11-13T05:20:36.196Z,3.84
2022-11-13T05:21:36.155Z,3.83
2022-11-13T05:22:36.078Z,3.78
2022-11-13T05:23:36.111Z,3.76
2022-11-13T05:24:35.958Z,3.68
2022-11-13T05:25:35.902Z,3.62
2022-11-13T05:26:35.843Z,3.60
2022-11-13T05:27:35.800Z,3.66
2022-11-13T05:28:35.725Z,3.63
2022-11-13T05:29:35.684Z,3.62
2022-11-13T05:30:35.613Z,3.53
2022-11-13T05:31:35.556Z,3.55
2022-11-13T05:32:35.494Z,3.55
2022-11-13T05:33:35.435Z,3.56
2022-11-13T05:34:35.390Z,3.56
2022-11-13T05:35:35.337Z,3.56
2022-11-13T05:36:35.268Z,3.59
2022-11-13T05:37:35.216Z,3.51
2022-11-13T05:38:35.146Z,3.63
2022-11-13T05:39:35.177Z,3.63
2022-11-13T05:40:35.038Z,3.62
2022-11-13T05:41:34.969Z,3.60
2022-11-13T05:42:34.909Z,3.58
2022-11-13T05:43:34.852Z,3.63
2022-11-13T05:44:34.812Z,3.66
2022-11-13T05:45:34.734Z,3.55
2022-11-13T05:46:34.675Z,3.60
2022-11-13T05:47:34.618Z,3.69
2022-11-13T05:48:34.573Z,3.62
2022-11-13T05:49:34.499Z,3.65
2022-11-13T05:50:34.442Z,3.59
2022-11-13T05:51:34.390Z,3.62
2022-11-13T05:52:34.327Z,3.63
2022-11-13T05:53:34.283Z,3.65
2022-11-13T05:54:34.209Z,3.55
2022-11-13T05:55:34.258Z,3.59
2022-11-13T05:56:34.090Z,3.62
2022-11-13T05:57:34.051Z,3.62
2022-11-13T05:58:33.988Z,3.63
2022-11-13T05:59:33.918Z,3.56
2022-11-13T06:00:33.858Z,3.59
2022-11-13T06:01:33.862Z,3.63
2022-11-13T06:02:33.742Z,3.59
2022-11-13T06:03:33.685Z,3.63
2022-11-13T06:04:33.622Z,3.62
2022-11-13T06:05:33.567Z,3.60
2022-11-13T06:06:33.520Z,3.58
2022-11-13T06:07:33.448Z,3.60
2022-11-13T06:08:33.391Z,3.59
2022-11-13T06:09:33.329Z,3.62
2022-11-13T06:10:33.291Z,3.58
2022-11-13T06:11:33.312Z,3.47
2022-11-13T06:12:33.169Z,3.56
2022-11-13T06:13:33.099Z,3.56
2022-11-13T06:14:33.052Z,3.51
2022-11-13T06:15:32.980Z,3.40
2022-11-13T06:16:32.937Z,3.40
2022-11-13T06:17:32.866Z,3.42
2022-11-13T06:18:33.270Z,3.41
2022-11-13T06:19:32.762Z,3.25
2022-11-13T06:20:32.688Z,3.28
2022-11-13T06:21:32.643Z,3.25
2022-11-13T06:22:32.571Z,3.32
2022-11-13T06:23:32.513Z,3.29
2022-11-13T06:24:32.456Z,3.28
2022-11-13T06:25:32.396Z,3.28
2022-11-13T06:26:32.348Z,3.32
2022-11-13T06:27:32.373Z,3.34
2022-11-13T06:28:32.220Z,3.29
2022-11-13T06:29:32.173Z,3.40
2022-11-13T06:30:32.102Z,3.29
2022-11-13T06:31:32.057Z,3.34
2022-11-13T06:32:31.984Z,3.32
2022-11-13T06:33:31.929Z,3.29
2022-11-13T06:34:31.867Z,3.29
2022-11-13T06:35:31.807Z,3.25
2022-11-13T06:36:31.764Z,3.37
2022-11-13T06:37:34.689Z,3.40
2022-11-13T06:38:32.024Z,3.36
2022-11-13T06:39:31.575Z,3.25
2022-11-13T06:40:31.515Z,3.29
2022-11-13T06:41:31.531Z,3.44
2022-11-13T06:42:31.397Z,3.41
2022-11-13T06:43:31.449Z,3.42
2022-11-13T06:44:31.281Z,3.42
2022-11-13T06:45:31.236Z,3.40
2022-11-13T06:46:31.230Z,3.36
2022-11-13T06:47:31.106Z,3.36
2022-11-13T06:48:31.356Z,3.32
2022-11-13T06:49:31.001Z,3.36
2022-11-13T06:50:30.928Z,3.29
2022-11-13T06:51:30.888Z,3.14
2022-11-13T06:52:30.814Z,3.07
2022-11-13T06:53:30.757Z,3.14
2022-11-13T06:54:30.694Z,3.19
2022-11-13T06:55:30.649Z,3.18
2022-11-13T06:56:30.583Z,3.11
2022-11-13T06:57:30.518Z,3.23
2022-11-13T06:58:30.898Z,3.26
2022-11-13T06:59:30.493Z,3.22
2022-11-13T07:00:36.203Z,3.16
2022-11-13T07:01:30.380Z,3.16
2022-11-13T07:02:30.222Z,3.14
2022-11-13T07:03:30.164Z,3.22
2022-11-13T07:04:30.113Z,3.22
2022-11-13T07:05:30.059Z,3.36
2022-11-13T07:06:30.001Z,3.29
2022-11-13T07:07:29.960Z,3.36
2022-11-13T07:08:30.123Z,3.37
2022-11-13T07:09:29.839Z,3.34
2022-11-13T07:10:29.780Z,3.32
2022-11-13T07:11:29.695Z,3.31
2022-11-13T07:12:29.649Z,3.44
2022-11-13T07:13:29.581Z,3.40
2022-11-13T07:14:29.519Z,3.48
2022-11-13T07:15:29.552Z,3.55
2022-11-13T07:16:44.204Z,3.51
2022-11-13T07:17:29.342Z,3.62
2022-11-13T07:18:29.562Z,3.80
2022-11-13T07:19:29.226Z,3.83
2022-11-13T07:20:29.259Z,3.96
2022-11-13T07:21:29.124Z,4.19
2022-11-13T07:22:29.044Z,4.30
2022-11-13T07:23:28.991Z,4.40
2022-11-13T07:24:28.941Z,4.44
2022-11-13T07:25:28.886Z,4.53
2022-11-13T07:26:28.830Z,4.68
2022-11-13T07:27:28.757Z,4.84
2022-11-13T07:28:28.967Z,4.89
2022-11-13T07:29:28.640Z,4.96
2022-11-13T07:30:28.600Z,4.99
2022-11-13T07:31:28.617Z,5.23
2022-11-13T07:32:28.481Z,5.39
2022-11-13T07:33:28.409Z,5.43
2022-11-13T07:34:28.373Z,5.57
2022-11-13T07:35:28.292Z,5.69
2022-11-13T07:36:28.240Z,5.72
2022-11-13T07:37:28.178Z,5.90
2022-11-13T07:38:28.422Z,5.94
2022-11-13T07:39:28.080Z,6.01
2022-11-13T07:40:28.007Z,6.11
2022-11-13T07:41:27.949Z,6.07
2022-11-13T07:42:27.906Z,6.19
2022-11-13T07:43:27.835Z,6.33
2022-11-13T07:44:53.031Z,6.52
2022-11-13T07:45:27.724Z,6.92
2022-11-13T07:46:27.664Z,7.45
2022-11-13T07:47:27.720Z,8.61
2022-11-13T07:48:28.343Z,9.59
2022-11-13T07:49:27.499Z,10.17
2022-11-13T07:50:27.448Z,11.00
2022-11-13T07:51:27.403Z,11.78
2022-11-13T07:52:27.338Z,12.24
2022-11-13T07:53:27.299Z,12.79
2022-11-13T07:54:27.233Z,13.33
2022-11-13T07:55:27.183Z,13.87
2022-11-13T07:56:27.132Z,14.04
2022-11-13T07:57:27.101Z,14.47
2022-11-13T07:58:27.432Z,15.21
2022-11-13T07:59:26.985Z,15.62
2022-11-13T08:00:26.933Z,15.84
2022-11-13T08:01:26.946Z,16.28
2022-11-13T08:02:27.040Z,16.56
2022-11-13T08:03:26.883Z,16.87
2022-11-13T08:04:26.750Z,17.12
2022-11-13T08:05:27.317Z,17.48
2022-11-13T08:06:26.669Z,17.12
2022-11-13T08:07:26.672Z,17.16
2022-11-13T08:08:26.945Z,17.24
2022-11-13T08:09:26.548Z,17.38
2022-11-13T08:10:26.477Z,17.01
2022-11-13T08:11:26.434Z,17.05
2022-11-13T08:12:26.395Z,17.39
2022-11-13T08:13:26.360Z,16.72
2022-11-13T08:14:26.304Z,16.76
2022-11-13T08:15:26.279Z,17.15
2022-11-13T08:16:26.220Z,17.74
2022-11-13T08:17:26.175Z,18.35
2022-11-13T08:18:26.521Z,18.49
2022-11-13T08:19:26.189Z,18.44
2022-11-13T08:20:26.057Z,18.47
2022-11-13T08:21:26.014Z,18.59
2022-11-13T08:22:25.972Z,19.11
2022-11-13T08:23:25.942Z,19.47
2022-11-13T08:24:25.912Z,19.71
2022-11-13T08:25:25.849Z,20.06
2022-11-13T08:26:25.808Z,20.22
2022-11-13T08:27:25.769Z,19.56
2022-11-13T08:28:25.932Z,19.51
2022-11-13T08:29:25.687Z,19.48
2022-11-13T08:30:25.651Z,19.59
2022-11-13T08:31:25.609Z,19.84
2022-11-13T08:32:25.570Z,20.16
2022-11-13T08:33:25.551Z,20.44
2022-11-13T08:34:25.504Z,20.66
2022-11-13T08:35:29.408Z,21.02
2022-11-13T08:36:25.414Z,21.21
2022-11-13T08:37:25.390Z,21.18
2022-11-13T08:38:25.534Z,21.11
2022-11-13T08:39:25.294Z,21.15
2022-11-13T08:40:25.259Z,21.25
2022-11-13T08:41:25.220Z,21.30
2022-11-13T08:42:25.180Z,21.37
2022-11-13T08:43:25.158Z,21.37
2022-11-13T08:44:25.107Z,21.40
2022-11-13T08:45:25.070Z,21.62
2022-11-13T08:46:25.077Z,21.69
2022-11-13T08:47:29.348Z,21.69
2022-11-13T08:48:25.073Z,21.85
2022-11-13T08:49:24.918Z,22.07
2022-11-13T08:50:24.895Z,22.35
2022-11-13T08:51:24.935Z,22.32
2022-11-13T08:52:24.802Z,22.04
2022-11-13T08:53:24.765Z,21.80
2022-11-13T08:54:24.727Z,22.10
2022-11-13T08:55:24.714Z,22.17
2022-11-13T08:56:24.652Z,21.93
2022-11-13T08:57:24.615Z,21.80
2022-11-13T08:58:24.580Z,21.61
2022-11-13T08:59:24.542Z,21.57
2022-11-13T09:00:24.503Z,21.54
2022-11-13T09:01:24.480Z,21.45
2022-11-13T09:02:24.429Z,21.83
2022-11-13T09:03:24.437Z,21.96
2022-11-13T09:04:24.356Z,21.64
2022-11-13T09:05:24.332Z,21.72
2022-11-13T09:06:24.291Z,22.11
2022-11-13T09:07:27.326Z,22.57
2022-11-13T09:08:24.237Z,22.94
2022-11-13T09:09:24.170Z,23.21
2022-11-13T09:10:25.291Z,23.15
2022-11-13T09:11:24.098Z,22.98
2022-11-13T09:12:24.059Z,23.09
2022-11-13T09:13:24.045Z,23.40
2022-11-13T09:14:24.026Z,23.59
2022-11-13T09:15:24.675Z,23.77
2022-11-13T09:16:23.913Z,23.95
2022-11-13T09:17:23.875Z,24.06
2022-11-13T09:18:23.838Z,24.36
2022-11-13T09:19:23.817Z,24.38
2022-11-13T09:20:23.774Z,24.17
2022-11-13T09:21:23.745Z,24.08
2022-11-13T09:22:23.701Z,24.24
2022-11-13T09:23:23.752Z,24.13
2022-11-13T09:24:23.624Z,24.01
2022-11-13T09:25:23.646Z,23.47
2022-11-13T09:26:23.546Z,23.43
2022-11-13T09:27:23.509Z,23.87
2022-11-13T09:28:23.487Z,24.14
2022-11-13T09:29:23.456Z,24.24
2022-11-13T09:30:23.434Z,23.46
2022-11-13T09:31:23.365Z,23.39
2022-11-13T09:32:23.331Z,23.76
2022-11-13T09:33:23.308Z,24.24
2022-11-13T09:34:23.257Z,24.50
2022-11-13T09:35:23.219Z,24.92
2022-11-13T09:36:23.182Z,25.16
2022-11-13T09:37:23.147Z,24.89
2022-11-13T09:38:23.122Z,24.81
2022-11-13T09:39:23.167Z,24.89
2022-11-13T09:40:23.077Z,24.86
2022-11-13T09:42:39.692Z,24.54
2022-11-13T09:43:39.651Z,24.61
2022-11-13T09:44:39.630Z,25.10
2022-11-13T09:45:39.593Z,25.29
2022-11-13T09:46:39.543Z,24.96
2022-11-13T09:47:39.503Z,25.14
2022-11-13T09:48:39.469Z,25.21
2022-11-13T09:49:39.432Z,25.35
2022-11-13T09:50:39.410Z,25.62
2022-11-13T09:51:39.356Z,25.93
2022-11-13T09:52:39.335Z,25.98
2022-11-13T09:53:39.284Z,26.25
2022-11-13T09:54:39.355Z,26.53
2022-11-13T09:55:39.227Z,26.38
2022-11-13T09:56:39.175Z,25.83
2022-11-13T09:57:39.151Z,25.77
2022-11-13T09:58:39.101Z,26.33
2022-11-13T09:59:39.069Z,26.53
2022-11-13T10:00:39.084Z,26.65
2022-11-13T10:01:38.994Z,26.85
2022-11-13T10:02:38.973Z,27.10
2022-11-13T10:03:59.923Z,27.12
2022-11-13T10:04:38.877Z,27.02
2022-11-13T10:05:38.858Z,26.45
2022-11-13T10:06:38.856Z,25.95
2022-11-13T10:07:38.768Z,25.80
2022-11-13T10:08:38.732Z,25.60
2022-11-13T10:09:38.694Z,25.22
2022-11-13T10:10:38.762Z,25.62
2022-11-13T10:11:38.616Z,25.95
2022-11-13T10:12:38.582Z,25.62
2022-11-13T10:13:38.569Z,25.68
2022-11-13T10:14:38.508Z,26.45
2022-11-13T10:15:38.473Z,26.62
2022-11-13T10:16:38.432Z,26.41
2022-11-13T10:17:38.395Z,26.51
2022-11-13T10:18:38.382Z,26.73
2022-11-13T10:19:38.318Z,26.73
2022-11-13T10:20:38.292Z,26.80
2022-11-13T10:21:38.258Z,26.74
2022-11-13T10:22:38.206Z,26.81
2022-11-13T10:23:38.172Z,27.03
2022-11-13T10:24:38.130Z,26.88
2022-11-13T10:25:38.096Z,26.81
2022-11-13T10:26:38.159Z,26.78
2022-11-13T10:27:38.062Z,26.74
2022-11-13T10:28:53.490Z,26.43
2022-11-13T10:29:37.933Z,26.63
2022-11-13T10:30:37.903Z,26.58
2022-11-13T10:31:37.897Z,26.31
2022-11-13T10:32:37.833Z,26.68
2022-11-13T10:33:37.781Z,26.45
2022-11-13T10:34:37.770Z,25.85
2022-11-13T10:35:37.700Z,25.93
2022-11-13T10:36:37.661Z,25.84
2022-11-13T10:37:37.640Z,25.66
2022-11-13T10:38:37.583Z,26.15
2022-11-13T10:39:37.542Z,26.36
2022-11-13T10:40:37.518Z,26.19
2022-11-13T10:41:37.464Z,26.03
2022-11-13T10:42:37.529Z,25.87
2022-11-13T10:43:37.388Z,25.69
2022-11-13T10:44:37.341Z,25.14
2022-11-13T10:45:37.304Z,25.07
2022-11-13T10:46:37.278Z,25.35
2022-11-13T10:48:02.529Z,25.66
2022-11-13T10:48:37.191Z,24.92
2022-11-13T10:49:37.142Z,24.76
2022-11-13T10:50:37.103Z,24.69
2022-11-13T10:51:37.077Z,24.70
2022-11-13T10:52:37.020Z,24.70
2022-11-13T10:53:36.995Z,24.89
2022-11-13T10:54:36.941Z,25.26
2022-11-13T10:55:36.892Z,25.36
2022-11-13T10:56:36.851Z,25.29
2022-11-13T10:57:36.825Z,25.17
2022-11-13T10:58:36.875Z,25.23
2022-11-13T10:59:36.727Z,25.26
2022-11-13T11:00:36.686Z,25.01
2022-11-13T11:01:36.679Z,24.99
2022-11-13T11:02:36.618Z,25.04
2022-11-13T11:03:36.559Z,24.85
2022-11-13T11:04:36.518Z,24.57
2022-11-13T11:05:36.472Z,24.43
2022-11-13T11:07:12.693Z,24.47
2022-11-13T11:07:36.439Z,24.35
2022-11-13T11:08:36.348Z,23.78
2022-11-13T11:09:36.311Z,23.62
2022-11-13T11:10:36.272Z,23.78
2022-11-13T11:11:36.213Z,23.92
2022-11-13T11:12:36.181Z,24.08
2022-11-13T11:13:36.144Z,24.14
2022-11-13T11:14:36.196Z,23.95
2022-11-13T11:15:36.257Z,23.56
2022-11-13T11:16:36.001Z,23.40
2022-11-13T11:17:35.956Z,23.13
2022-11-13T11:18:35.913Z,22.81
2022-11-13T11:19:35.885Z,22.78
2022-11-13T11:20:35.826Z,22.90
2022-11-13T11:21:35.783Z,22.63
2022-11-13T11:22:35.747Z,22.51
2022-11-13T11:23:35.694Z,22.63
2022-11-13T11:24:35.649Z,22.78
2022-11-13T11:25:35.618Z,22.75
2022-11-13T11:26:35.563Z,22.80
2022-11-13T11:27:35.516Z,22.83
2022-11-13T11:28:35.474Z,22.68
2022-11-13T11:29:35.441Z,22.65
2022-11-13T11:30:35.478Z,22.41
2022-11-13T11:31:35.340Z,22.17
2022-11-13T11:32:35.296Z,21.98
2022-11-13T11:33:35.251Z,21.99
2022-11-13T11:34:35.221Z,22.11
2022-11-13T11:35:35.164Z,21.92
2022-11-13T11:36:35.118Z,21.95
2022-11-13T11:37:35.074Z,21.95
2022-11-13T11:38:35.029Z,21.62
2022-11-13T11:39:35.008Z,21.29
2022-11-13T11:40:34.943Z,21.21
2022-11-13T11:41:34.894Z,21.11
2022-11-13T11:42:34.860Z,21.11
2022-11-13T11:43:34.817Z,21.02
2022-11-13T11:44:34.776Z,21.17
2022-11-13T11:45:34.729Z,21.14
2022-11-13T11:46:34.768Z,21.15
2022-11-13T11:47:34.627Z,21.22
2022-11-13T11:48:34.585Z,21.15
2022-11-13T11:49:34.542Z,21.18
2022-11-13T11:50:34.516Z,21.18
2022-11-13T11:51:34.461Z,21.35
2022-11-13T11:52:34.405Z,21.27
2022-11-13T11:53:34.358Z,20.97
2022-11-13T11:54:34.321Z,20.82
2022-11-13T11:55:34.283Z,20.85
2022-11-13T11:56:34.223Z,21.03
2022-11-13T11:57:34.180Z,21.12
2022-11-13T11:58:34.136Z,21.22
2022-11-13T11:59:34.087Z,21.36
2022-11-13T12:00:34.073Z,21.22
2022-11-13T12:01:33.998Z,21.06
2022-11-13T12:02:34.058Z,20.99
2022-11-13T12:03:33.924Z,20.99
2022-11-13T12:04:33.937Z,20.90
2022-11-13T12:05:33.980Z,20.82
2022-11-13T12:06:33.774Z,20.65
2022-11-13T12:07:33.740Z,20.65
2022-11-13T12:08:33.681Z,20.59
2022-11-13T12:09:33.638Z,20.70
2022-11-13T12:10:33.611Z,20.74
2022-11-13T12:11:33.551Z,20.90
2022-11-13T12:12:33.503Z,21.14
2022-11-13T12:13:33.461Z,21.30
2022-11-13T12:14:33.409Z,21.35
2022-11-13T12:15:33.363Z,21.36
2022-11-13T12:16:33.330Z,21.29
2022-11-13T12:17:33.271Z,21.30
2022-11-13T12:18:33.316Z,21.25
2022-11-13T12:19:33.194Z,21.17
2022-11-13T12:20:33.148Z,21.14
2022-11-13T12:21:33.106Z,21.00
2022-11-13T12:22:33.046Z,20.81
2022-11-13T12:23:33.001Z,20.67
2022-11-13T12:24:32.966Z,20.74
2022-11-13T12:25:32.910Z,20.62
2022-11-13T12:26:32.882Z,20.60
2022-11-13T12:27:32.819Z,20.74
2022-11-13T12:28:35.938Z,20.66
2022-11-13T12:29:32.729Z,20.66
2022-11-13T12:30:32.682Z,20.56
2022-11-13T12:31:32.649Z,20.59
2022-11-13T12:32:32.618Z,20.60
2022-11-13T12:33:32.548Z,20.59
2022-11-13T12:34:32.615Z,20.56
2022-11-13T12:35:32.475Z,20.44
2022-11-13T12:36:32.423Z,20.36
2022-11-13T12:37:32.361Z,20.11
2022-11-13T12:38:32.543Z,19.99
2022-11-13T12:39:32.269Z,20.02
2022-11-13T12:40:32.223Z,19.91
2022-11-13T12:41:32.190Z,19.91
2022-11-13T12:42:32.133Z,19.91
2022-11-13T12:43:32.086Z,19.94
2022-11-13T12:44:32.040Z,20.02
2022-11-13T12:45:31.994Z,19.92
2022-11-13T12:46:31.966Z,19.74
2022-11-13T12:47:31.899Z,19.76
2022-11-13T12:48:32.204Z,19.76
2022-11-13T12:49:31.813Z,19.73
2022-11-13T12:50:32.972Z,19.55
2022-11-13T12:51:31.715Z,19.59
2022-11-13T12:52:31.689Z,19.55
2022-11-13T12:53:31.624Z,19.63
2022-11-13T12:54:31.581Z,19.55
2022-11-13T12:55:31.590Z,19.52
2022-11-13T12:56:31.499Z,19.48
2022-11-13T12:57:31.442Z,19.48
2022-11-13T12:58:31.913Z,19.49
2022-11-13T12:59:31.965Z,19.59
2022-11-13T13:00:31.298Z,19.70
2022-11-13T13:01:31.334Z,19.89
2022-11-13T13:02:31.206Z,19.82
2022-11-13T13:03:31.177Z,19.69
2022-11-13T13:04:31.112Z,19.70
2022-11-13T13:05:31.064Z,19.69
2022-11-13T13:06:31.115Z,19.55
2022-11-13T13:07:30.972Z,19.45
2022-11-13T13:08:31.194Z,19.27
2022-11-13T13:09:30.884Z,19.07